createdAt,value
2019-04-30T00:02:17.446Z,50.80
2019-04-30T00:04:55.398Z,50.80
2019-04-30T00:07:30.968Z,51.10
2019-04-30T00:10:06.104Z,50.80
2019-04-30T00:12:45.735Z,50.80
2019-04-30T00:15:19.454Z,50.70
2019-04-30T00:17:57.473Z,50.70
2019-04-30T00:20:29.980Z,50.70
2019-04-30T00:23:05.042Z,50.70
2019-04-30T00:25:35.541Z,50.70
2019-04-30T00:28:17.462Z,50.50
2019-04-30T00:30:48.027Z,50.60
2019-04-30T00:33:22.224Z,50.50
2019-04-30T00:35:55.172Z,50.50
2019-04-30T00:38:29.601Z,50.40
2019-04-30T00:41:06.210Z,50.40
2019-04-30T00:43:49.278Z,50.40
2019-04-30T00:46:29.190Z,50.50
2019-04-30T00:49:03.135Z,50.30
2019-04-30T00:51:29.821Z,50.30
2019-04-30T00:54:02.073Z,50.30
2019-04-30T00:56:32.806Z,50.30
2019-04-30T00:59:07.069Z,50.30
2019-04-30T01:01:56.346Z,50.20
2019-04-30T01:04:39.210Z,50.20
2019-04-30T01:07:15.520Z,50.20
2019-04-30T01:09:49.693Z,50.10
2019-04-30T01:12:27.572Z,50.10
2019-04-30T01:14:51.295Z,50.10
2019-04-30T01:17:23.149Z,50.00
2019-04-30T01:19:55.718Z,50.00
2019-04-30T01:22:32.785Z,50.00
2019-04-30T01:25:08.022Z,50.00
2019-04-30T01:27:34.568Z,49.90
2019-04-30T01:30:13.381Z,49.90
2019-04-30T01:32:45.262Z,49.90
2019-04-30T01:35:23.971Z,49.90
2019-04-30T01:37:59.560Z,49.90
2019-04-30T01:40:31.109Z,50.50
2019-04-30T01:43:01.831Z,49.80
2019-04-30T01:45:32.220Z,49.80
2019-04-30T01:48:08.826Z,49.80
2019-04-30T01:50:42.043Z,49.70
2019-04-30T01:53:13.294Z,49.70
2019-04-30T01:56:11.283Z,49.70
2019-04-30T01:58:49.479Z,49.60
2019-04-30T02:01:22.166Z,49.60
2019-04-30T02:03:53.975Z,49.60
2019-04-30T02:06:24.846Z,49.50
2019-04-30T02:08:59.637Z,49.40
2019-04-30T02:11:30.331Z,49.40
2019-04-30T02:14:01.011Z,49.40
2019-04-30T02:16:39.450Z,49.40
2019-04-30T02:19:11.290Z,49.40
2019-04-30T02:21:44.429Z,49.40
2019-04-30T02:24:15.107Z,49.30
2019-04-30T02:26:59.457Z,49.30
2019-04-30T02:29:30.083Z,49.30
2019-04-30T02:32:00.744Z,49.30
2019-04-30T02:34:44.064Z,49.20
2019-04-30T02:37:21.272Z,49.10
2019-04-30T02:39:52.997Z,49.20
2019-04-30T02:42:23.932Z,49.10
2019-04-30T02:45:03.416Z,49.10
2019-04-30T02:47:35.971Z,49.10
2019-04-30T02:50:15.254Z,49.10
2019-04-30T02:52:41.423Z,49.10
2019-04-30T02:55:14.828Z,48.90
2019-04-30T02:57:49.862Z,48.90
2019-04-30T03:00:23.429Z,48.90
2019-04-30T03:02:53.870Z,48.80
2019-04-30T03:05:24.330Z,48.80
2019-04-30T03:08:00.467Z,48.80
2019-04-30T03:10:32.762Z,48.80
2019-04-30T03:13:03.106Z,48.80
2019-04-30T03:15:39.431Z,48.70
2019-04-30T03:18:19.686Z,48.70
2019-04-30T03:21:02.605Z,48.70
2019-04-30T03:23:32.981Z,48.70
2019-04-30T03:26:05.188Z,48.70
2019-04-30T03:28:39.688Z,48.70
2019-04-30T03:31:13.884Z,48.60
2019-04-30T03:33:44.328Z,48.60
2019-04-30T03:36:21.535Z,48.50
2019-04-30T03:38:50.028Z,48.50
2019-04-30T03:41:20.963Z,48.60
2019-04-30T03:43:55.870Z,48.40
2019-04-30T03:46:30.005Z,48.50
2019-04-30T03:49:01.622Z,48.40
2019-04-30T03:51:32.600Z,48.30
2019-04-30T03:54:04.830Z,48.30
2019-04-30T03:56:35.501Z,48.30
2019-04-30T03:59:10.570Z,48.20
2019-04-30T04:01:55.930Z,48.20
2019-04-30T04:04:39.504Z,48.20
2019-04-30T04:07:36.766Z,48.20
2019-04-30T04:10:19.519Z,48.10
2019-04-30T04:12:50.870Z,48.10
2019-04-30T04:15:24.989Z,48.10
2019-04-30T04:17:55.651Z,48.10
2019-04-30T04:20:26.178Z,48.00
2019-04-30T04:23:04.287Z,48.00
2019-04-30T04:25:35.050Z,47.90
2019-04-30T04:28:10.105Z,47.90
2019-04-30T04:30:43.031Z,47.90
2019-04-30T04:33:13.291Z,48.00
2019-04-30T04:35:43.842Z,47.90
2019-04-30T04:38:20.483Z,47.90
2019-04-30T04:40:52.275Z,47.80
2019-04-30T04:43:33.167Z,47.80
2019-04-30T04:46:04.904Z,47.90
2019-04-30T04:48:35.927Z,47.90
2019-04-30T04:51:06.452Z,47.80
2019-04-30T04:53:39.998Z,47.90
2019-04-30T04:56:14.069Z,47.90
2019-04-30T04:58:44.941Z,48.00
2019-04-30T05:01:20.393Z,48.00
2019-04-30T05:03:54.470Z,47.90
2019-04-30T05:06:29.626Z,47.90
2019-04-30T05:09:01.706Z,48.00
2019-04-30T05:11:32.969Z,48.10
2019-04-30T05:14:10.935Z,48.10
2019-04-30T05:16:41.758Z,48.00
2019-04-30T05:19:18.519Z,48.00
2019-04-30T05:21:55.337Z,48.10
2019-04-30T05:24:32.030Z,48.10
2019-04-30T05:27:06.025Z,48.10
2019-04-30T05:29:41.372Z,48.10
2019-04-30T05:32:12.615Z,48.10
2019-04-30T05:34:49.561Z,48.00
2019-04-30T05:37:18.713Z,48.00
2019-04-30T05:39:54.949Z,48.20
2019-04-30T05:42:28.621Z,48.10
2019-04-30T05:45:00.002Z,48.10
2019-04-30T05:47:34.525Z,48.10
2019-04-30T05:50:10.728Z,48.20
2019-04-30T05:52:41.734Z,48.20
2019-04-30T05:55:19.607Z,48.20
2019-04-30T05:57:56.197Z,48.20
2019-04-30T06:00:24.032Z,48.20
2019-04-30T06:02:57.110Z,48.30
2019-04-30T06:05:28.615Z,48.20
2019-04-30T06:08:03.390Z,48.30
2019-04-30T06:10:59.745Z,48.30
2019-04-30T06:13:49.238Z,48.50
2019-04-30T06:16:22.398Z,48.30
2019-04-30T06:18:53.029Z,48.40
2019-04-30T06:21:24.782Z,48.40
2019-04-30T06:23:56.690Z,48.40
2019-04-30T06:26:29.592Z,48.40
2019-04-30T06:29:00.509Z,48.40
2019-04-30T06:31:37.253Z,48.40
2019-04-30T06:34:06.238Z,48.40
2019-04-30T06:36:39.440Z,48.40
2019-04-30T06:39:18.836Z,48.50
2019-04-30T06:41:51.210Z,48.50
2019-04-30T06:44:34.761Z,48.30
2019-04-30T06:46:54.989Z,48.30
2019-04-30T06:49:30.153Z,48.40
2019-04-30T06:52:02.815Z,48.50
2019-04-30T06:54:36.820Z,48.30
2019-04-30T06:57:09.765Z,48.20
2019-04-30T06:59:42.757Z,48.20
2019-04-30T07:02:13.007Z,48.20
2019-04-30T07:04:43.963Z,48.10
2019-04-30T07:07:19.307Z,48.00
2019-04-30T07:10:10.109Z,48.20
2019-04-30T07:12:58.973Z,48.30
2019-04-30T07:15:31.862Z,49.10
2019-04-30T07:18:05.114Z,50.00
2019-04-30T07:20:36.103Z,49.70
2019-04-30T07:23:06.394Z,49.50
2019-04-30T07:25:39.543Z,49.30
2019-04-30T07:28:19.067Z,49.90
2019-04-30T07:31:07.538Z,50.10
2019-04-30T07:33:29.649Z,49.30
2019-04-30T07:36:05.929Z,49.40
2019-04-30T07:38:49.583Z,49.50
2019-04-30T07:41:18.988Z,49.30
2019-04-30T07:43:49.493Z,49.50
2019-04-30T07:46:26.724Z,49.70
2019-04-30T07:49:00.226Z,49.40
2019-04-30T07:51:38.111Z,48.90
2019-04-30T07:54:09.347Z,49.00
2019-04-30T07:56:45.982Z,49.10
2019-04-30T07:59:17.124Z,48.80
2019-04-30T08:04:51.467Z,48.60
2019-04-30T08:07:29.829Z,48.30
2019-04-30T08:09:38.268Z,49.00
2019-04-30T08:10:03.633Z,49.00
2019-04-30T08:12:42.610Z,49.00
2019-04-30T08:15:10.974Z,48.80
2019-04-30T08:17:43.999Z,48.80
2019-04-30T08:20:19.620Z,48.90
2019-04-30T08:22:51.082Z,48.80
2019-04-30T08:25:23.327Z,48.90
2019-04-30T08:28:01.448Z,48.70
2019-04-30T08:30:39.018Z,48.70
2019-04-30T08:33:14.082Z,48.40
2019-04-30T08:35:44.693Z,48.30
2019-04-30T08:38:15.449Z,48.40
2019-04-30T08:40:57.638Z,48.30
2019-04-30T08:43:26.175Z,48.20
2019-04-30T08:46:04.062Z,48.20
2019-04-30T08:48:46.093Z,48.10
2019-04-30T08:51:09.942Z,47.80
2019-04-30T08:53:41.193Z,47.90
2019-04-30T08:56:22.036Z,47.90
2019-04-30T08:58:54.926Z,47.80
2019-04-30T09:01:29.375Z,47.70
2019-04-30T09:04:01.342Z,47.50
2019-04-30T09:06:33.034Z,47.40
2019-04-30T09:09:14.121Z,47.40
2019-04-30T09:11:52.920Z,47.60
2019-04-30T09:14:23.054Z,47.40
2019-04-30T09:17:02.065Z,47.30
2019-04-30T09:19:38.667Z,47.00
2019-04-30T09:22:14.631Z,46.60
2019-04-30T09:24:47.044Z,46.80
2019-04-30T09:27:22.273Z,47.00
2019-04-30T09:29:55.102Z,47.00
2019-04-30T09:32:29.095Z,47.00
2019-04-30T09:35:04.735Z,46.90
2019-04-30T09:37:34.919Z,46.90
2019-04-30T09:40:16.193Z,46.90
2019-04-30T09:42:40.406Z,46.80
2019-04-30T09:45:12.358Z,46.50
2019-04-30T09:47:42.622Z,46.60
2019-04-30T09:50:15.043Z,46.40
2019-04-30T09:52:49.668Z,46.20
2019-04-30T09:55:20.570Z,45.90
2019-04-30T09:57:53.751Z,46.10
2019-04-30T10:00:25.311Z,46.40
2019-04-30T10:02:59.777Z,46.20
2019-04-30T10:05:32.482Z,46.10
2019-04-30T10:08:04.774Z,46.00
2019-04-30T10:10:41.599Z,45.40
2019-04-30T10:13:18.366Z,45.40
2019-04-30T10:16:10.123Z,46.10
2019-04-30T10:18:43.068Z,46.10
2019-04-30T10:21:16.482Z,46.20
2019-04-30T10:23:49.927Z,46.10
2019-04-30T10:26:28.585Z,46.10
2019-04-30T10:29:05.143Z,46.00
2019-04-30T10:31:38.724Z,46.00
2019-04-30T10:34:13.674Z,46.40
2019-04-30T10:36:49.344Z,45.80
2019-04-30T10:39:22.601Z,45.70
2019-04-30T10:41:57.961Z,45.60
2019-04-30T10:44:29.846Z,45.40
2019-04-30T10:47:02.658Z,45.10
2019-04-30T10:49:35.576Z,45.30
2019-04-30T10:52:10.117Z,45.10
2019-04-30T10:54:43.241Z,45.20
2019-04-30T10:57:15.229Z,45.00
2019-04-30T10:59:45.710Z,44.40
2019-04-30T11:02:16.865Z,44.50
2019-04-30T11:04:47.286Z,44.40
2019-04-30T11:07:29.700Z,44.10
2019-04-30T11:10:00.209Z,44.00
2019-04-30T11:12:31.473Z,43.80
2019-04-30T11:15:06.214Z,43.80
2019-04-30T11:17:41.202Z,43.70
2019-04-30T11:20:14.867Z,43.60
2019-04-30T11:22:54.704Z,43.40
2019-04-30T11:25:25.545Z,43.20
2019-04-30T11:28:03.902Z,43.10
2019-04-30T11:30:36.718Z,42.30
2019-04-30T11:33:08.471Z,41.90
2019-04-30T11:35:39.512Z,40.70
2019-04-30T11:38:12.591Z,41.10
2019-04-30T11:40:48.512Z,41.40
2019-04-30T11:43:26.193Z,41.40
2019-04-30T11:46:28.786Z,40.30
2019-04-30T11:49:04.679Z,41.90
2019-04-30T11:51:39.238Z,41.70
2019-04-30T11:54:12.643Z,40.50
2019-04-30T11:56:44.265Z,39.50
2019-04-30T11:59:22.560Z,39.70
2019-04-30T12:02:03.078Z,40.30
2019-04-30T12:04:39.110Z,39.30
2019-04-30T12:07:40.302Z,39.50
2019-04-30T12:10:32.039Z,40.20
2019-04-30T12:13:03.531Z,38.90
2019-04-30T12:15:36.781Z,40.20
2019-04-30T12:18:09.762Z,39.40
2019-04-30T12:20:40.013Z,38.80
2019-04-30T12:23:14.237Z,39.40
2019-04-30T12:25:49.290Z,39.40
2019-04-30T12:28:24.216Z,39.40
2019-04-30T12:30:58.797Z,39.80
2019-04-30T12:33:29.572Z,39.50
2019-04-30T12:36:03.007Z,39.80
2019-04-30T12:38:33.807Z,39.90
2019-04-30T12:41:08.755Z,38.00
2019-04-30T12:43:41.036Z,38.30
2019-04-30T12:46:19.034Z,38.80
2019-04-30T12:49:24.395Z,39.50
2019-04-30T12:52:16.006Z,38.30
2019-04-30T12:55:15.218Z,38.50
2019-04-30T12:57:56.464Z,36.90
2019-04-30T13:00:19.504Z,37.30
2019-04-30T13:02:53.101Z,37.00
2019-04-30T13:05:27.029Z,38.20
2019-04-30T13:08:00.714Z,38.20
2019-04-30T13:10:37.550Z,38.80
2019-04-30T13:13:11.929Z,39.20
2019-04-30T13:15:42.700Z,39.60
2019-04-30T13:18:14.013Z,40.50
2019-04-30T13:20:45.536Z,40.20
2019-04-30T13:23:21.719Z,40.50
2019-04-30T13:25:53.899Z,40.60
2019-04-30T13:28:27.406Z,40.80
2019-04-30T13:31:01.279Z,41.10
2019-04-30T13:33:51.283Z,41.40
2019-04-30T13:36:24.374Z,41.70
2019-04-30T13:39:23.466Z,41.90
2019-04-30T13:42:14.555Z,42.00
2019-04-30T13:44:39.394Z,42.70
2019-04-30T13:47:11.657Z,42.40
2019-04-30T13:49:56.314Z,42.50
2019-04-30T13:52:30.942Z,42.60
2019-04-30T13:55:02.989Z,42.70
2019-04-30T13:57:36.618Z,42.80
2019-04-30T14:00:09.811Z,42.90
2019-04-30T14:02:45.670Z,43.00
2019-04-30T14:05:18.844Z,43.20
2019-04-30T14:08:09.387Z,43.20
2019-04-30T14:10:44.422Z,43.40
2019-04-30T14:13:14.962Z,43.70
2019-04-30T14:15:47.669Z,40.80
2019-04-30T14:18:28.538Z,39.50
2019-04-30T14:20:51.917Z,40.30
2019-04-30T14:23:22.223Z,39.30
2019-04-30T14:26:00.852Z,39.60
2019-04-30T14:28:35.482Z,38.00
2019-04-30T14:31:07.887Z,38.30
2019-04-30T14:33:43.486Z,37.70
2019-04-30T14:36:14.581Z,38.30
2019-04-30T14:39:13.079Z,36.00
2019-04-30T14:41:32.477Z,37.20
2019-04-30T14:44:15.487Z,37.30
2019-04-30T14:47:11.674Z,36.70
2019-04-30T14:50:04.863Z,36.40
2019-04-30T14:52:44.419Z,37.40
2019-04-30T14:55:31.966Z,37.70
2019-04-30T14:58:15.216Z,37.50
2019-04-30T15:01:12.053Z,36.50
2019-04-30T15:03:43.306Z,36.30
2019-04-30T15:06:19.401Z,36.10
2019-04-30T15:08:54.526Z,36.50
2019-04-30T15:11:25.204Z,36.70
2019-04-30T15:14:01.919Z,36.80
2019-04-30T15:16:35.502Z,36.50
2019-04-30T15:19:06.448Z,36.40
2019-04-30T15:21:39.087Z,35.40
2019-04-30T15:24:23.273Z,35.60
2019-04-30T15:26:58.011Z,36.40
2019-04-30T15:29:31.090Z,37.30
2019-04-30T15:32:05.785Z,36.10
2019-04-30T15:34:40.859Z,35.70
2019-04-30T15:37:19.101Z,35.40
2019-04-30T15:39:43.978Z,36.10
2019-04-30T15:42:15.277Z,36.10
2019-04-30T15:44:47.184Z,36.70
2019-04-30T15:47:21.449Z,35.70
2019-04-30T15:49:54.940Z,35.00
2019-04-30T15:52:29.801Z,34.50
2019-04-30T15:55:01.891Z,34.60
2019-04-30T15:57:36.192Z,34.80
2019-04-30T16:00:10.725Z,35.60
2019-04-30T16:02:57.312Z,36.90
2019-04-30T16:05:37.697Z,37.60
2019-04-30T16:08:29.060Z,37.90
2019-04-30T16:11:27.188Z,38.10
2019-04-30T16:14:14.790Z,38.50
2019-04-30T16:17:03.455Z,38.70
2019-04-30T16:19:36.951Z,38.80
2019-04-30T16:22:15.686Z,39.00
2019-04-30T16:24:46.365Z,39.20
2019-04-30T16:27:19.213Z,39.40
2019-04-30T16:29:59.541Z,39.50
2019-04-30T16:32:29.791Z,39.60
2019-04-30T16:35:11.346Z,39.60
2019-04-30T16:37:45.281Z,39.70
2019-04-30T16:40:28.844Z,39.90
2019-04-30T16:43:01.398Z,39.90
2019-04-30T16:45:38.858Z,40.10
2019-04-30T16:48:11.924Z,40.30
2019-04-30T16:50:48.888Z,40.30
2019-04-30T16:53:22.150Z,40.30
2019-04-30T16:55:53.291Z,40.10
2019-04-30T16:58:24.743Z,40.10
2019-04-30T17:00:59.808Z,39.90
2019-04-30T17:03:38.820Z,39.50
2019-04-30T17:06:16.317Z,39.70
2019-04-30T17:08:53.896Z,39.40
2019-04-30T17:11:42.809Z,39.60
2019-04-30T17:14:17.887Z,39.50
2019-04-30T17:16:55.376Z,39.50
2019-04-30T17:19:26.113Z,39.40
2019-04-30T17:21:57.619Z,39.60
2019-04-30T17:24:31.799Z,39.70
2019-04-30T17:27:02.643Z,39.80
2019-04-30T17:29:35.644Z,39.80
2019-04-30T17:32:10.621Z,39.90
2019-04-30T17:34:42.663Z,40.00
2019-04-30T17:37:13.479Z,40.10
2019-04-30T17:39:45.489Z,40.30
2019-04-30T17:42:19.622Z,40.30
2019-04-30T17:44:56.795Z,40.40
2019-04-30T17:47:25.286Z,40.40
2019-04-30T17:50:03.519Z,40.40
2019-04-30T17:52:35.970Z,40.30
2019-04-30T17:55:14.139Z,40.20
2019-04-30T17:57:44.904Z,40.10
2019-04-30T18:00:22.311Z,40.10
2019-04-30T18:02:52.132Z,40.00
2019-04-30T18:05:29.249Z,40.10
2019-04-30T18:08:00.887Z,40.10
2019-04-30T18:10:34.784Z,40.20
2019-04-30T18:13:05.607Z,40.30
2019-04-30T18:15:37.665Z,40.40
2019-04-30T18:18:24.923Z,40.40
2019-04-30T18:21:12.413Z,40.50
2019-04-30T18:24:10.613Z,40.60
2019-04-30T18:26:49.415Z,40.70
2019-04-30T18:29:21.179Z,40.80
2019-04-30T18:31:55.413Z,41.00
2019-04-30T18:34:29.232Z,40.90
2019-04-30T18:37:00.488Z,41.00
2019-04-30T18:39:32.899Z,41.00
2019-04-30T18:42:11.156Z,41.10
2019-04-30T18:44:41.743Z,41.10
2019-04-30T18:47:16.622Z,41.20
2019-04-30T18:49:49.394Z,41.30
2019-04-30T18:52:21.183Z,41.30
2019-04-30T18:54:53.303Z,41.40
2019-04-30T18:57:24.646Z,41.60
2019-04-30T18:59:59.121Z,41.70
2019-04-30T19:02:31.188Z,42.10
2019-04-30T19:05:05.931Z,41.90
2019-04-30T19:07:45.134Z,42.10
2019-04-30T19:10:26.575Z,42.20
2019-04-30T19:13:14.251Z,42.20
2019-04-30T19:16:18.747Z,42.30
2019-04-30T19:18:44.871Z,42.40
2019-04-30T19:21:15.166Z,42.60
2019-04-30T19:23:51.754Z,42.50
2019-04-30T19:26:29.148Z,42.40
2019-04-30T19:29:01.369Z,42.60
2019-04-30T19:31:32.372Z,42.70
2019-04-30T19:34:03.843Z,42.70
2019-04-30T19:36:37.800Z,42.90
2019-04-30T19:39:13.770Z,42.80
2019-04-30T19:41:48.990Z,42.80
2019-04-30T19:44:21.909Z,42.70
2019-04-30T19:46:52.949Z,42.80
2019-04-30T19:49:28.002Z,42.70
2019-04-30T19:52:08.455Z,42.60
2019-04-30T19:54:36.235Z,42.60
2019-04-30T19:57:07.596Z,42.60
2019-04-30T19:59:41.336Z,42.50
2019-04-30T20:02:13.469Z,42.30
2019-04-30T20:04:44.787Z,42.40
2019-04-30T20:07:19.513Z,42.20
2019-04-30T20:10:00.123Z,42.20
2019-04-30T20:12:29.065Z,42.20
2019-04-30T20:15:16.248Z,42.20
2019-04-30T20:17:38.999Z,42.10
2019-04-30T20:20:10.742Z,42.00
2019-04-30T20:22:41.127Z,42.00
2019-04-30T20:25:12.121Z,42.00
2019-04-30T20:27:42.631Z,42.20
2019-04-30T20:30:19.561Z,42.30
2019-04-30T20:32:56.581Z,42.40
2019-04-30T20:35:29.578Z,42.50
2019-04-30T20:38:19.440Z,42.60
2019-04-30T20:41:00.016Z,42.70
2019-04-30T20:43:28.553Z,42.80
2019-04-30T20:46:02.335Z,42.80
2019-04-30T20:48:39.288Z,43.00
2019-04-30T20:51:10.336Z,42.90
2019-04-30T20:53:41.036Z,43.00
2019-04-30T20:56:14.919Z,43.00
2019-04-30T20:58:55.641Z,43.10
2019-04-30T21:01:20.274Z,43.00
2019-04-30T21:03:54.649Z,43.10
2019-04-30T21:06:25.665Z,43.20
2019-04-30T21:09:00.758Z,43.30
2019-04-30T21:11:45.345Z,43.40
2019-04-30T21:14:19.207Z,43.30
2019-04-30T21:16:58.607Z,43.50
2019-04-30T21:19:30.741Z,43.60
2019-04-30T21:22:03.551Z,43.70
2019-04-30T21:24:40.681Z,43.70
2019-04-30T21:27:13.419Z,43.60
2019-04-30T21:29:45.228Z,43.60
2019-04-30T21:32:29.041Z,43.70
2019-04-30T21:35:18.173Z,43.60
2019-04-30T21:37:49.541Z,43.40
2019-04-30T21:40:20.434Z,42.70
2019-04-30T21:42:51.975Z,42.20
2019-04-30T21:45:25.510Z,41.90
2019-04-30T21:48:02.072Z,41.50
2019-04-30T21:50:32.802Z,41.40
2019-04-30T21:53:05.324Z,41.10
2019-04-30T21:55:37.002Z,41.10
2019-04-30T21:58:12.437Z,41.00
2019-04-30T22:01:01.065Z,40.80
2019-04-30T22:03:36.308Z,41.30
2019-04-30T22:06:08.464Z,40.60
2019-04-30T22:08:41.679Z,40.50
2019-04-30T22:11:13.601Z,40.60
2019-04-30T22:13:49.523Z,40.70
2019-04-30T22:16:20.594Z,40.60
2019-04-30T22:18:51.568Z,40.70
2019-04-30T22:21:26.263Z,40.70
2019-04-30T22:23:57.267Z,40.70
2019-04-30T22:26:30.899Z,40.70
2019-04-30T22:29:01.871Z,40.80
2019-04-30T22:31:33.855Z,40.80
2019-04-30T22:34:04.774Z,40.80
2019-04-30T22:36:44.358Z,40.70
2019-04-30T22:39:32.567Z,40.80
2019-04-30T22:42:35.910Z,40.80
2019-04-30T22:45:12.330Z,40.80
2019-04-30T22:47:42.725Z,40.90
2019-04-30T22:50:13.634Z,40.90
2019-04-30T22:52:47.086Z,40.80
2019-04-30T22:55:17.725Z,40.90
2019-04-30T22:57:52.398Z,40.80
2019-04-30T23:00:40.994Z,40.90
2019-04-30T23:03:29.685Z,40.80
2019-04-30T23:06:01.212Z,40.90
2019-04-30T23:08:35.498Z,40.90
2019-04-30T23:11:12.506Z,40.90
2019-04-30T23:13:43.653Z,40.90
2019-04-30T23:16:17.886Z,40.90
2019-04-30T23:18:52.574Z,40.90
2019-04-30T23:21:23.084Z,40.80
2019-04-30T23:23:58.554Z,40.80
2019-04-30T23:26:35.026Z,40.80
2019-04-30T23:29:06.177Z,40.80
2019-04-30T23:31:43.809Z,40.80
2019-04-30T23:34:18.067Z,40.90
2019-04-30T23:36:46.785Z,40.90
2019-04-30T23:39:17.621Z,41.00
2019-04-30T23:41:48.011Z,40.90
2019-04-30T23:44:20.623Z,41.00
2019-04-30T23:46:53.393Z,41.00
2019-04-30T23:49:24.015Z,41.00
2019-04-30T23:51:59.859Z,41.00
2019-04-30T23:54:34.202Z,41.00
2019-04-30T23:57:06.259Z,41.00
2019-04-30T23:59:36.913Z,41.00
